createdAt,value
2023-03-15T00:01:11.277Z,49.78
2023-03-15T00:03:39.729Z,50.01
2023-03-15T00:06:07.352Z,50.08
2023-03-15T00:08:34.464Z,49.97
2023-03-15T00:11:02.229Z,49.88
2023-03-15T00:13:31.845Z,49.98
2023-03-15T00:16:02.874Z,50.00
2023-03-15T00:18:30.610Z,50.13
2023-03-15T00:20:58.421Z,50.04
2023-03-15T00:23:25.905Z,50.26
2023-03-15T00:25:53.842Z,50.52
2023-03-15T00:28:21.401Z,50.73
2023-03-15T00:30:49.616Z,50.40
2023-03-15T00:33:17.104Z,50.18
2023-03-15T00:35:45.611Z,50.57
2023-03-15T00:38:14.176Z,50.22
2023-03-15T00:40:41.421Z,50.40
2023-03-15T00:43:08.320Z,51.29
2023-03-15T00:45:35.397Z,50.98
2023-03-15T00:48:04.207Z,50.95
2023-03-15T00:50:31.054Z,50.43
2023-03-15T00:52:57.924Z,50.67
2023-03-15T00:55:24.939Z,50.10
2023-03-15T00:57:52.053Z,49.76
2023-03-15T01:00:24.375Z,49.73
2023-03-15T01:02:52.156Z,49.71
2023-03-15T01:05:21.864Z,49.50
2023-03-15T01:07:49.506Z,49.69
2023-03-15T01:10:17.458Z,49.63
2023-03-15T01:12:45.233Z,49.88
2023-03-15T01:15:14.859Z,49.69
2023-03-15T01:17:43.008Z,49.72
2023-03-15T01:20:13.198Z,49.89
2023-03-15T01:22:41.441Z,49.92
2023-03-15T01:25:09.598Z,49.93
2023-03-15T01:27:37.382Z,50.06
2023-03-15T01:30:06.539Z,49.62
2023-03-15T01:32:33.920Z,49.65
2023-03-15T01:35:00.902Z,49.62
2023-03-15T01:37:27.861Z,49.47
2023-03-15T01:39:56.060Z,49.67
2023-03-15T01:42:23.079Z,49.90
2023-03-15T01:44:56.428Z,49.68
2023-03-15T01:47:27.069Z,49.33
2023-03-15T01:50:02.402Z,49.48
2023-03-15T01:52:35.724Z,49.25
2023-03-15T01:55:10.068Z,48.95
2023-03-15T01:57:41.548Z,49.14
2023-03-15T02:00:13.313Z,49.30
2023-03-15T02:02:49.048Z,49.70
2023-03-15T02:05:23.813Z,49.35
2023-03-15T02:07:54.419Z,49.90
2023-03-15T02:10:30.595Z,49.66
2023-03-15T02:12:59.416Z,49.85
2023-03-15T02:15:26.980Z,49.67
2023-03-15T02:17:53.994Z,49.90
2023-03-15T02:20:34.778Z,50.25
2023-03-15T02:23:06.511Z,50.28
2023-03-15T02:25:45.735Z,49.84
2023-03-15T02:28:16.700Z,50.60
2023-03-15T02:30:45.301Z,50.50
2023-03-15T02:33:22.355Z,50.93
2023-03-15T02:35:49.413Z,50.85
2023-03-15T02:38:16.380Z,50.95
2023-03-15T02:40:46.421Z,51.27
2023-03-15T02:43:19.658Z,51.05
2023-03-15T02:45:47.954Z,51.56
2023-03-15T02:48:16.459Z,51.72
2023-03-15T02:50:43.402Z,51.99
2023-03-15T02:53:12.220Z,51.87
2023-03-15T02:55:39.546Z,51.81
2023-03-15T02:58:06.486Z,51.77
2023-03-15T03:00:35.312Z,52.27
2023-03-15T03:03:02.190Z,52.13
2023-03-15T03:05:29.200Z,52.39
2023-03-15T03:07:56.169Z,52.90
2023-03-15T03:10:23.309Z,52.84
2023-03-15T03:12:53.433Z,52.81
2023-03-15T03:15:21.504Z,52.91
2023-03-15T03:17:49.766Z,53.16
2023-03-15T03:20:16.788Z,53.10
2023-03-15T03:22:44.787Z,53.13
2023-03-15T03:25:12.836Z,53.25
2023-03-15T03:27:40.959Z,53.18
2023-03-15T03:30:11.392Z,53.61
2023-03-15T03:32:39.557Z,53.56
2023-03-15T03:35:09.368Z,53.51
2023-03-15T03:37:36.367Z,53.46
2023-03-15T03:40:06.873Z,53.68
2023-03-15T03:42:34.318Z,53.62
2023-03-15T03:45:01.803Z,53.58
2023-03-15T03:47:28.705Z,53.61
2023-03-15T03:49:55.633Z,53.31
2023-03-15T03:52:23.990Z,53.33
2023-03-15T03:54:50.961Z,53.39
2023-03-15T03:57:17.871Z,53.45
2023-03-15T03:59:44.824Z,53.55
2023-03-15T04:02:11.862Z,53.52
2023-03-15T04:04:41.163Z,53.70
2023-03-15T04:07:08.670Z,53.81
2023-03-15T04:09:37.675Z,53.92
2023-03-15T04:12:06.103Z,53.97
2023-03-15T04:14:33.203Z,54.06
2023-03-15T04:17:03.660Z,54.09
2023-03-15T04:19:30.862Z,54.15
2023-03-15T04:21:57.834Z,54.08
2023-03-15T04:24:24.801Z,53.67
2023-03-15T04:26:57.718Z,54.11
2023-03-15T04:29:24.708Z,54.38
2023-03-15T04:31:51.666Z,54.68
2023-03-15T04:34:18.761Z,54.73
2023-03-15T04:36:45.675Z,54.75
2023-03-15T04:39:12.614Z,54.84
2023-03-15T04:41:39.575Z,55.20
2023-03-15T04:44:07.891Z,54.76
2023-03-15T04:46:34.865Z,54.75
2023-03-15T04:49:03.304Z,55.02
2023-03-15T04:51:30.371Z,54.86
2023-03-15T04:53:57.291Z,54.98
2023-03-15T04:56:24.193Z,55.02
2023-03-15T04:58:51.180Z,54.97
2023-03-15T05:01:19.563Z,55.07
2023-03-15T05:03:46.562Z,55.12
2023-03-15T05:06:13.545Z,54.94
2023-03-15T05:08:40.496Z,55.82
2023-03-15T05:11:07.370Z,55.09
2023-03-15T05:13:34.282Z,55.48
2023-03-15T05:16:01.202Z,55.45
2023-03-15T05:18:29.873Z,55.46
2023-03-15T05:20:57.019Z,55.90
2023-03-15T05:23:24.635Z,55.70
2023-03-15T05:25:55.501Z,55.86
2023-03-15T05:28:24.727Z,56.01
2023-03-15T05:30:53.092Z,55.89
2023-03-15T05:33:21.408Z,56.05
2023-03-15T05:35:49.735Z,56.51
2023-03-15T05:38:16.845Z,56.26
2023-03-15T05:40:45.017Z,55.83
2023-03-15T05:43:12.735Z,56.10
2023-03-15T05:45:40.974Z,56.34
2023-03-15T05:48:07.954Z,56.78
2023-03-15T05:50:36.211Z,56.65
2023-03-15T05:53:04.883Z,56.96
2023-03-15T05:55:31.997Z,57.00
2023-03-15T05:57:58.848Z,56.56
2023-03-15T06:00:25.990Z,56.73
2023-03-15T06:02:53.055Z,57.07
2023-03-15T06:05:19.957Z,57.35
2023-03-15T06:07:47.156Z,56.67
2023-03-15T06:10:15.947Z,56.68
2023-03-15T06:12:42.896Z,56.89
2023-03-15T06:15:11.205Z,56.62
2023-03-15T06:17:38.714Z,56.76
2023-03-15T06:20:06.767Z,56.88
2023-03-15T06:22:33.880Z,57.30
2023-03-15T06:25:00.784Z,56.86
2023-03-15T06:27:29.100Z,56.99
2023-03-15T06:29:57.293Z,57.13
2023-03-15T06:32:24.403Z,57.04
2023-03-15T06:34:52.846Z,57.10
2023-03-15T06:37:34.278Z,57.34
2023-03-15T06:40:07.135Z,56.86
2023-03-15T06:42:35.860Z,57.38
2023-03-15T06:45:03.365Z,56.83
2023-03-15T06:47:30.638Z,57.08
2023-03-15T06:49:57.902Z,57.11
2023-03-15T06:52:24.871Z,56.95
2023-03-15T06:54:51.772Z,56.83
2023-03-15T06:57:18.654Z,57.14
2023-03-15T06:59:47.035Z,56.78
2023-03-15T07:02:16.986Z,56.50
2023-03-15T07:04:45.253Z,55.26
2023-03-15T07:07:12.296Z,55.05
2023-03-15T07:09:40.729Z,53.51
2023-03-15T07:12:10.366Z,52.71
2023-03-15T07:14:37.598Z,52.57
2023-03-15T07:17:06.082Z,52.67
2023-03-15T07:19:33.000Z,53.04
2023-03-15T07:21:59.942Z,52.46
2023-03-15T07:24:28.265Z,51.67
2023-03-15T07:26:56.477Z,50.86
2023-03-15T07:29:24.487Z,48.90
2023-03-15T07:31:52.149Z,48.35
2023-03-15T07:34:21.653Z,48.29
2023-03-15T07:36:48.734Z,47.41
2023-03-15T07:39:16.081Z,46.44
2023-03-15T07:41:43.066Z,46.67
2023-03-15T07:44:09.986Z,46.12
2023-03-15T07:46:36.981Z,47.12
2023-03-15T07:49:04.334Z,47.02
2023-03-15T07:51:32.785Z,47.20
2023-03-15T07:53:59.696Z,46.79
2023-03-15T07:56:26.614Z,45.95
2023-03-15T07:58:53.554Z,44.90
2023-03-15T08:01:21.500Z,44.37
2023-03-15T08:03:48.461Z,43.55
2023-03-15T08:06:15.327Z,42.87
2023-03-15T08:08:43.528Z,41.60
2023-03-15T08:11:10.618Z,40.29
2023-03-15T08:13:37.536Z,39.16
2023-03-15T08:16:05.234Z,37.36
2023-03-15T08:18:32.194Z,36.42
2023-03-15T08:20:59.176Z,36.38
2023-03-15T08:23:26.511Z,35.86
2023-03-15T08:25:54.750Z,35.06
2023-03-15T08:28:21.658Z,34.75
2023-03-15T08:30:49.119Z,33.83
2023-03-15T08:33:16.158Z,33.34
2023-03-15T08:35:43.092Z,33.05
2023-03-15T08:38:10.081Z,31.30
2023-03-15T08:40:38.847Z,31.10
2023-03-15T08:43:07.735Z,30.09
2023-03-15T08:45:51.062Z,29.39
2023-03-15T08:48:21.877Z,27.59
2023-03-15T08:50:48.864Z,28.18
2023-03-15T08:53:15.840Z,27.52
2023-03-15T08:55:42.798Z,26.94
2023-03-15T08:58:13.008Z,26.30
2023-03-15T09:00:40.496Z,25.08
2023-03-15T09:03:07.450Z,24.56
2023-03-15T09:05:34.435Z,22.63
2023-03-15T09:08:01.916Z,23.01
2023-03-15T09:10:29.208Z,22.84
2023-03-15T09:12:56.234Z,22.59
2023-03-15T09:15:24.605Z,22.02
2023-03-15T09:17:52.463Z,22.44
2023-03-15T09:20:22.758Z,21.60
2023-03-15T09:22:52.738Z,21.37
2023-03-15T09:25:20.773Z,21.48
2023-03-15T09:27:48.229Z,21.75
2023-03-15T09:30:17.052Z,20.20
2023-03-15T09:32:46.178Z,20.54
2023-03-15T09:35:15.950Z,19.88
2023-03-15T09:37:43.005Z,20.22
2023-03-15T09:40:19.487Z,20.83
2023-03-15T09:43:01.336Z,20.53
2023-03-15T09:45:50.289Z,20.63
2023-03-15T09:48:27.549Z,20.04
2023-03-15T09:51:01.195Z,19.24
2023-03-15T09:53:33.901Z,19.29
2023-03-15T09:56:00.957Z,19.28
2023-03-15T09:58:32.768Z,20.42
2023-03-15T10:01:05.119Z,19.90
2023-03-15T10:03:45.742Z,21.24
2023-03-15T10:06:23.040Z,21.84
2023-03-15T10:08:56.551Z,22.84
2023-03-15T10:11:39.884Z,22.73
2023-03-15T10:14:28.056Z,21.89
2023-03-15T10:16:58.694Z,21.37
2023-03-15T10:19:39.630Z,20.96
2023-03-15T10:22:25.273Z,21.92
2023-03-15T10:24:59.250Z,23.39
2023-03-15T10:27:37.180Z,24.41
2023-03-15T10:30:17.530Z,26.23
2023-03-15T10:32:52.059Z,26.85
2023-03-15T10:35:21.564Z,29.72
2023-03-15T10:37:49.064Z,31.55
2023-03-15T10:40:40.393Z,33.03
2023-03-15T10:43:19.285Z,33.94
2023-03-15T10:46:01.996Z,35.68
2023-03-15T10:48:32.010Z,36.83
2023-03-15T10:51:06.416Z,37.56
2023-03-15T10:53:34.024Z,38.86
2023-03-15T10:56:05.064Z,39.00
2023-03-15T10:58:42.223Z,39.95
2023-03-15T11:01:25.413Z,40.13
2023-03-15T11:04:16.176Z,40.81
2023-03-15T11:06:49.138Z,41.21
2023-03-15T11:09:21.997Z,41.01
2023-03-15T11:12:03.633Z,40.90
2023-03-15T11:14:37.874Z,41.56
2023-03-15T11:17:07.472Z,41.89
2023-03-15T11:19:42.076Z,41.32
2023-03-15T11:22:13.868Z,41.76
2023-03-15T11:24:40.967Z,41.49
2023-03-15T11:27:14.299Z,41.56
2023-03-15T11:29:47.726Z,41.55
2023-03-15T11:32:19.806Z,42.02
2023-03-15T11:34:58.066Z,42.03
2023-03-15T11:37:34.871Z,41.22
2023-03-15T11:40:14.032Z,39.22
2023-03-15T11:42:59.702Z,37.26
2023-03-15T11:45:39.528Z,37.16
2023-03-15T11:48:16.370Z,36.74
2023-03-15T11:50:44.090Z,36.89
2023-03-15T11:53:17.037Z,37.24
2023-03-15T11:55:49.857Z,37.51
2023-03-15T11:58:32.907Z,37.91
2023-03-15T12:01:03.764Z,38.40
2023-03-15T12:03:38.573Z,38.72
2023-03-15T12:06:37.859Z,38.85
2023-03-15T12:09:45.737Z,39.18
2023-03-15T12:12:36.506Z,39.85
2023-03-15T12:15:15.874Z,40.19
2023-03-15T12:17:49.048Z,40.47
2023-03-15T12:20:27.705Z,41.06
2023-03-15T12:23:18.104Z,40.50
2023-03-15T12:25:55.512Z,40.04
2023-03-15T12:28:30.292Z,39.33
2023-03-15T12:31:01.744Z,37.74
2023-03-15T12:33:32.457Z,36.63
2023-03-15T12:36:03.508Z,36.28
2023-03-15T12:38:38.151Z,36.16
2023-03-15T12:41:30.943Z,35.05
2023-03-15T12:44:36.410Z,34.41
2023-03-15T12:47:05.704Z,34.12
2023-03-15T12:49:41.025Z,33.59
2023-03-15T12:52:35.848Z,32.74
2023-03-15T12:55:15.272Z,31.56
2023-03-15T12:57:50.192Z,30.90
2023-03-15T13:00:23.336Z,30.50
2023-03-15T13:03:01.529Z,29.25
2023-03-15T13:05:36.141Z,28.57
2023-03-15T13:08:17.490Z,28.62
2023-03-15T13:11:05.921Z,29.07
2023-03-15T13:14:05.568Z,29.09
2023-03-15T13:16:44.504Z,29.11
2023-03-15T13:19:22.816Z,28.66
2023-03-15T13:22:12.190Z,29.40
2023-03-15T13:24:57.070Z,29.07
2023-03-15T13:27:46.767Z,29.22
2023-03-15T13:30:37.735Z,30.57
2023-03-15T13:33:23.627Z,31.18
2023-03-15T13:35:58.576Z,30.90
2023-03-15T13:38:33.302Z,31.58
2023-03-15T13:41:04.189Z,30.71
2023-03-15T13:43:34.793Z,31.99
2023-03-15T13:46:02.160Z,32.10
2023-03-15T13:48:33.425Z,31.53
2023-03-15T13:51:07.763Z,30.49
2023-03-15T13:53:49.980Z,29.89
2023-03-15T13:56:21.500Z,28.57
2023-03-15T13:58:50.190Z,28.27
2023-03-15T14:01:18.366Z,27.75
2023-03-15T14:03:56.510Z,27.54
2023-03-15T14:06:26.815Z,26.47
2023-03-15T14:09:00.578Z,26.11
2023-03-15T14:11:37.093Z,25.95
2023-03-15T14:14:23.220Z,25.77
2023-03-15T14:17:04.189Z,25.26
2023-03-15T14:19:36.631Z,24.76
2023-03-15T14:22:15.384Z,24.08
2023-03-15T14:24:46.599Z,24.41
2023-03-15T14:27:19.002Z,24.41
2023-03-15T14:29:49.323Z,24.00
2023-03-15T14:32:28.626Z,23.98
2023-03-15T14:35:03.961Z,23.83
2023-03-15T14:37:37.781Z,24.42
2023-03-15T14:40:16.016Z,24.89
2023-03-15T14:42:43.256Z,25.44
2023-03-15T14:45:11.110Z,24.95
2023-03-15T14:47:55.604Z,25.60
2023-03-15T14:50:29.194Z,26.01
2023-03-15T14:52:58.867Z,25.84
2023-03-15T14:55:30.923Z,26.11
2023-03-15T14:57:58.005Z,26.37
2023-03-15T15:00:27.075Z,26.09
2023-03-15T15:02:57.489Z,26.57
2023-03-15T15:05:29.129Z,27.33
2023-03-15T15:08:03.981Z,27.67
2023-03-15T15:10:32.074Z,27.38
2023-03-15T15:13:06.034Z,26.95
2023-03-15T15:15:47.445Z,26.66
2023-03-15T15:18:19.910Z,27.08
2023-03-15T15:20:51.291Z,27.90
2023-03-15T15:23:21.927Z,27.43
2023-03-15T15:25:53.280Z,26.75
2023-03-15T15:28:33.384Z,26.60
2023-03-15T15:31:01.994Z,26.72
2023-03-15T15:33:28.965Z,26.88
2023-03-15T15:35:58.273Z,27.02
2023-03-15T15:38:33.089Z,26.80
2023-03-15T15:41:00.194Z,27.37
2023-03-15T15:43:27.340Z,27.98
2023-03-15T15:45:54.544Z,27.75
2023-03-15T15:48:22.151Z,28.52
2023-03-15T15:50:49.206Z,28.43
2023-03-15T15:53:18.446Z,29.25
2023-03-15T15:55:46.345Z,29.38
2023-03-15T15:58:15.227Z,29.85
2023-03-15T16:00:42.116Z,30.14
2023-03-15T16:03:16.264Z,30.35
2023-03-15T16:05:43.741Z,30.32
2023-03-15T16:08:24.718Z,30.84
2023-03-15T16:10:52.178Z,31.14
2023-03-15T16:13:19.576Z,31.60
2023-03-15T16:15:46.556Z,31.62
2023-03-15T16:18:13.816Z,31.93
2023-03-15T16:20:41.605Z,31.79
2023-03-15T16:23:19.470Z,32.28
2023-03-15T16:25:53.822Z,32.58
2023-03-15T16:28:21.115Z,32.67
2023-03-15T16:30:48.556Z,32.87
2023-03-15T16:33:21.428Z,33.25
2023-03-15T16:35:50.046Z,33.29
2023-03-15T16:38:24.261Z,33.54
2023-03-15T16:40:53.236Z,33.54
2023-03-15T16:43:20.762Z,34.02
2023-03-15T16:45:48.564Z,34.52
2023-03-15T16:48:15.525Z,34.85
2023-03-15T16:50:44.186Z,35.13
2023-03-15T16:53:13.426Z,35.29
2023-03-15T16:55:41.131Z,35.70
2023-03-15T16:58:19.859Z,35.22
2023-03-15T17:00:48.141Z,36.17
2023-03-15T17:03:16.982Z,36.22
2023-03-15T17:05:47.343Z,36.54
2023-03-15T17:08:19.681Z,36.81
2023-03-15T17:10:47.629Z,37.07
2023-03-15T17:13:23.243Z,37.21
2023-03-15T17:15:50.245Z,37.64
2023-03-15T17:18:21.593Z,37.82
2023-03-15T17:20:50.227Z,37.79
2023-03-15T17:23:20.777Z,38.04
2023-03-15T17:25:49.270Z,38.08
2023-03-15T17:28:17.760Z,37.81
2023-03-15T17:30:44.852Z,38.09
2023-03-15T17:33:12.297Z,38.05
2023-03-15T17:35:44.117Z,38.21
2023-03-15T17:38:18.641Z,38.60
2023-03-15T17:40:46.318Z,38.64
2023-03-15T17:43:15.878Z,38.98
2023-03-15T17:45:44.549Z,38.68
2023-03-15T17:48:12.179Z,38.73
2023-03-15T17:50:43.873Z,38.78
2023-03-15T17:53:16.532Z,39.12
2023-03-15T17:55:44.081Z,38.56
2023-03-15T17:58:17.444Z,38.74
2023-03-15T18:00:48.339Z,39.66
2023-03-15T18:03:17.442Z,39.60
2023-03-15T18:05:45.545Z,39.36
2023-03-15T18:08:18.220Z,38.87
2023-03-15T18:10:47.809Z,39.22
2023-03-15T18:13:17.951Z,39.38
2023-03-15T18:15:46.395Z,39.55
2023-03-15T18:18:13.754Z,39.33
2023-03-15T18:20:41.059Z,39.16
2023-03-15T18:23:12.577Z,39.24
2023-03-15T18:25:40.781Z,40.16
2023-03-15T18:28:07.749Z,39.82
2023-03-15T18:30:34.810Z,39.86
2023-03-15T18:33:05.644Z,39.50
2023-03-15T18:35:36.381Z,39.84
2023-03-15T18:38:03.973Z,39.33
2023-03-15T18:40:33.604Z,39.18
2023-03-15T18:43:01.331Z,39.93
2023-03-15T18:45:31.768Z,40.04
2023-03-15T18:48:02.129Z,40.13
2023-03-15T18:50:30.827Z,40.41
2023-03-15T18:52:58.196Z,41.08
2023-03-15T18:55:26.262Z,41.16
2023-03-15T18:57:56.401Z,41.18
2023-03-15T19:00:27.188Z,41.66
2023-03-15T19:02:57.040Z,41.95
2023-03-15T19:05:26.048Z,41.84
2023-03-15T19:07:54.488Z,41.63
2023-03-15T19:10:25.446Z,41.79
2023-03-15T19:12:53.888Z,42.72
2023-03-15T19:15:22.891Z,42.78
2023-03-15T19:17:54.455Z,41.85
2023-03-15T19:20:23.490Z,42.33
2023-03-15T19:22:51.797Z,42.11
2023-03-15T19:25:21.077Z,41.88
2023-03-15T19:27:49.417Z,41.88
2023-03-15T19:30:21.025Z,42.24
2023-03-15T19:32:49.969Z,41.89
2023-03-15T19:35:19.366Z,42.02
2023-03-15T19:37:48.091Z,41.92
2023-03-15T19:40:17.387Z,42.35
2023-03-15T19:42:48.470Z,41.93
2023-03-15T19:45:18.216Z,42.41
2023-03-15T19:47:45.436Z,42.99
2023-03-15T19:50:14.507Z,41.92
2023-03-15T19:52:46.062Z,41.89
2023-03-15T19:55:15.578Z,41.91
2023-03-15T19:57:43.455Z,42.26
2023-03-15T20:00:15.940Z,41.93
2023-03-15T20:02:43.755Z,41.72
2023-03-15T20:05:15.076Z,41.77
2023-03-15T20:07:43.306Z,41.73
2023-03-15T20:10:16.257Z,42.17
2023-03-15T20:12:45.382Z,42.16
2023-03-15T20:15:18.476Z,42.70
2023-03-15T20:17:46.041Z,42.64
2023-03-15T20:20:14.510Z,42.66
2023-03-15T20:22:45.434Z,42.21
2023-03-15T20:25:14.371Z,42.66
2023-03-15T20:27:41.991Z,42.61
2023-03-15T20:30:14.894Z,42.40
2023-03-15T20:32:42.947Z,42.76
2023-03-15T20:35:11.008Z,42.69
2023-03-15T20:37:40.804Z,42.38
2023-03-15T20:40:11.072Z,41.89
2023-03-15T20:42:38.509Z,42.05
2023-03-15T20:45:07.840Z,42.23
2023-03-15T20:47:37.829Z,42.94
2023-03-15T20:50:05.474Z,42.93
2023-03-15T20:52:34.192Z,42.79
2023-03-15T20:55:03.532Z,42.72
2023-03-15T20:57:31.153Z,42.72
2023-03-15T20:59:58.045Z,42.62
2023-03-15T21:02:25.053Z,42.64
2023-03-15T21:04:53.303Z,43.71
2023-03-15T21:07:20.859Z,43.37
2023-03-15T21:09:48.315Z,44.11
2023-03-15T21:12:15.682Z,43.92
2023-03-15T21:14:43.173Z,43.58
2023-03-15T21:17:10.343Z,43.49
2023-03-15T21:19:37.787Z,43.78
2023-03-15T21:22:06.207Z,43.52
2023-03-15T21:24:40.596Z,43.33
2023-03-15T21:27:11.354Z,43.56
2023-03-15T21:29:39.953Z,43.65
2023-03-15T21:32:08.106Z,43.92
2023-03-15T21:34:35.787Z,43.89
2023-03-15T21:37:02.764Z,44.15
2023-03-15T21:39:31.014Z,44.33
2023-03-15T21:41:57.907Z,44.12
2023-03-15T21:44:25.155Z,44.45
2023-03-15T21:46:52.943Z,44.37
2023-03-15T21:49:19.869Z,44.73
2023-03-15T21:51:46.982Z,44.82
2023-03-15T21:54:14.269Z,44.85
2023-03-15T21:56:42.488Z,45.19
2023-03-15T21:59:10.346Z,45.28
2023-03-15T22:01:37.562Z,45.36
2023-03-15T22:04:04.722Z,45.49
2023-03-15T22:06:32.243Z,45.21
2023-03-15T22:08:59.176Z,45.55
2023-03-15T22:11:26.107Z,45.32
2023-03-15T22:13:54.351Z,45.35
2023-03-15T22:16:21.377Z,45.83
2023-03-15T22:18:48.375Z,45.62
2023-03-15T22:21:15.254Z,45.56
2023-03-15T22:23:42.167Z,45.64
2023-03-15T22:26:09.137Z,45.51
2023-03-15T22:28:36.222Z,45.58
2023-03-15T22:31:04.621Z,45.80
2023-03-15T22:33:31.869Z,45.93
2023-03-15T22:35:59.415Z,45.69
2023-03-15T22:38:26.584Z,46.05
2023-03-15T22:41:02.642Z,45.69
2023-03-15T22:43:29.873Z,45.90
2023-03-15T22:45:56.817Z,45.78
2023-03-15T22:48:25.962Z,45.82
2023-03-15T22:50:58.452Z,46.08
2023-03-15T22:53:25.598Z,45.85
2023-03-15T22:55:53.031Z,45.75
2023-03-15T22:58:20.355Z,45.93
2023-03-15T23:00:48.555Z,45.71
2023-03-15T23:03:16.167Z,45.66
2023-03-15T23:05:44.610Z,45.87
2023-03-15T23:08:11.620Z,45.47
2023-03-15T23:10:38.665Z,45.33
2023-03-15T23:13:06.059Z,44.94
2023-03-15T23:15:33.343Z,45.30
2023-03-15T23:18:01.770Z,45.21
2023-03-15T23:20:29.358Z,44.98
2023-03-15T23:22:58.451Z,45.17
2023-03-15T23:25:29.416Z,44.70
2023-03-15T23:27:57.160Z,44.71
2023-03-15T23:30:24.128Z,44.23
2023-03-15T23:32:57.397Z,44.36
2023-03-15T23:35:25.072Z,44.13
2023-03-15T23:37:52.924Z,44.32
2023-03-15T23:40:21.894Z,43.78
2023-03-15T23:42:58.556Z,43.75
2023-03-15T23:45:27.582Z,44.08
2023-03-15T23:47:54.899Z,44.15
2023-03-15T23:50:25.714Z,43.68
2023-03-15T23:52:54.565Z,43.34
2023-03-15T23:55:23.830Z,43.68
2023-03-15T23:57:53.848Z,43.80
